Alize — WDF3880 — position and weather

sailwx.info

Track history (hours):
 
Tides and Currents Weather Stations Pressure Air Temp Water Temp Dewpoint Dewpoint Depression Visibility Wind Speed Wind Dir Waves Ship Positions

Alize

Owner: Frazee, John M, Norfolk, VA. More information available from US FCC via Universal Licensing System and Coast Guard Vessel Documentation Center.

Last reported at 2017-Aug-22 13:34 UTC. Time now 2017-Aug-23 00:25 UTC.
Position N 31°52' W 081°02'.

Length 14 m.

Type: Sailing vessel. MMSI: 367445110.

Date/timePositionNaut miles runAvg speedWind from/ knotsBaromVisibWave heightAir tempDewpointWater temp
2017-Aug-22 13:34N 31°52' W 081°02'2 6.7
2017-Aug-22 13:16N 31°52' W 081°04'2 6.4
2017-Aug-22 12:59N 31°53' W 081°05'2 2.1
2017-Aug-22 12:00N 31°55' W 081°06'4 7.9
2017-Aug-22 11:30N 31°52' W 081°04'16 0.4
2017-Aug-20 23:37N 31°56' W 080°46'3 6.8
2017-Aug-20 23:13N 31°54' W 080°48'14 3.8
2017-Aug-20 19:34N 31°53' W 081°05'1 5.6
2017-Aug-20 19:23N 31°53' W 081°05'2 5.5
2017-Aug-20 19:00N 31°55' W 081°06'0 0.9
2017-Aug-20 18:30N 31°55' W 081°06'  
Track history (hours):
 
Tides and Currents Weather Stations Pressure Air Temp Water Temp Dewpoint Dewpoint Depression Visibility Wind Speed Wind Dir Waves Ship Positions

Alize

Owner: Frazee, John M, Norfolk, VA. More information available from US FCC via Universal Licensing System and Coast Guard Vessel Documentation Center.

Last reported at 2017-Aug-22 13:34 UTC. Time now 2017-Aug-23 00:25 UTC.
Position N 31°52' W 081°02'.

Length 14 m.

Type: Sailing vessel. MMSI: 367445110.

Date/timePositionNaut miles runAvg speedWind from/ knotsBaromVisibWave heightAir tempDewpointWater temp
2017-Aug-22 13:34N 31°52' W 081°02'2 6.7
2017-Aug-22 13:16N 31°52' W 081°04'2 6.4
2017-Aug-22 12:59N 31°53' W 081°05'2 2.1
2017-Aug-22 12:00N 31°55' W 081°06'4 7.9
2017-Aug-22 11:30N 31°52' W 081°04'16 0.4
2017-Aug-20 23:37N 31°56' W 080°46'3 6.8
2017-Aug-20 23:13N 31°54' W 080°48'14 3.8
2017-Aug-20 19:34N 31°53' W 081°05'1 5.6
2017-Aug-20 19:23N 31°53' W 081°05'2 5.5
2017-Aug-20 19:00N 31°55' W 081°06'0 0.9
2017-Aug-20 18:30N 31°55' W 081°06'  

Dump ship's entire track history